Ning Jing Hai — VRQG5 — position and weather

sailwx.info

Track history (hours):
 
Tides and Currents Weather Stations Pressure Air Temp Water Temp Dewpoint Dewpoint Depression Visibility Wind Speed Wind Dir Waves Ship Positions

Ning Jing Hai

Last reported at 2018-Jun-17 17:27 UTC. Time now 2018-Jun-25 06:12 UTC.
Position N 38°40' E 119°59'.

Length 199 m; draft 13.4 m.

Type: Cargo ship. MMSI: 477636800.

Date/timePositionNaut miles runAvg speedWind from/ knotsBaromVisibWave heightAir tempDewpointWater temp
2018-Jun-17 17:27N 38°40' E 119°59'  
2018-Jun-11 23:43N 38°49' E 118°15'510.2
2018-Jun-11 23:14N 38°51' E 118°21'311.0
2018-Jun-11 23:00N 38°51' E 118°24'610.7
2018-Jun-11 22:25N 38°50' E 118°32'810.6
2018-Jun-11 21:38N 38°49' E 118°43'310.7
2018-Jun-11 21:19N 38°49' E 118°47'2110.5
2018-Jun-11 19:17N 38°47' E 119°15'411.2
2018-Jun-11 18:53N 38°47' E 119°20'511.5
2018-Jun-11 18:28N 38°46' E 119°26'3311.9
2018-Jun-11 15:42N 38°42' E 120°08'412.1
2018-Jun-11 15:24N 38°41' E 120°13'612.4
2018-Jun-11 14:55N 38°40' E 120°20'512.5
2018-Jun-11 14:30N 38°40' E 120°27'8211.7
2018-Jun-11 07:32N 38°06' E 122°02'013.2
2018-Jun-11 07:30N 38°05' E 122°02'812.4
2018-Jun-11 06:53N 38°02' E 122°10'1812.3
2018-Jun-11 05:25N 37°52' E 122°30'611.6
2018-Jun-11 04:54N 37°49' E 122°36'511.6
2018-Jun-11 04:30N 37°45' E 122°39'  
Track history (hours):
 
Tides and Currents Weather Stations Pressure Air Temp Water Temp Dewpoint Dewpoint Depression Visibility Wind Speed Wind Dir Waves Ship Positions

Ning Jing Hai

Last reported at 2018-Jun-17 17:27 UTC. Time now 2018-Jun-25 06:12 UTC.
Position N 38°40' E 119°59'.

Length 199 m; draft 13.4 m.

Type: Cargo ship. MMSI: 477636800.

Date/timePositionNaut miles runAvg speedWind from/ knotsBaromVisibWave heightAir tempDewpointWater temp
2018-Jun-17 17:27N 38°40' E 119°59'  
2018-Jun-11 23:43N 38°49' E 118°15'510.2
2018-Jun-11 23:14N 38°51' E 118°21'311.0
2018-Jun-11 23:00N 38°51' E 118°24'610.7
2018-Jun-11 22:25N 38°50' E 118°32'810.6
2018-Jun-11 21:38N 38°49' E 118°43'310.7
2018-Jun-11 21:19N 38°49' E 118°47'2110.5
2018-Jun-11 19:17N 38°47' E 119°15'411.2
2018-Jun-11 18:53N 38°47' E 119°20'511.5
2018-Jun-11 18:28N 38°46' E 119°26'3311.9
2018-Jun-11 15:42N 38°42' E 120°08'412.1
2018-Jun-11 15:24N 38°41' E 120°13'612.4
2018-Jun-11 14:55N 38°40' E 120°20'512.5
2018-Jun-11 14:30N 38°40' E 120°27'8211.7
2018-Jun-11 07:32N 38°06' E 122°02'013.2
2018-Jun-11 07:30N 38°05' E 122°02'812.4
2018-Jun-11 06:53N 38°02' E 122°10'1812.3
2018-Jun-11 05:25N 37°52' E 122°30'611.6
2018-Jun-11 04:54N 37°49' E 122°36'511.6
2018-Jun-11 04:30N 37°45' E 122°39'  

Dump ship's entire track history